Time;durP1;ratioP1;P1;durP2;ratioP2;P2;SDS_P1;SDS_P2;PMS_P1;PMS_P2;Temp;Humidity;BMP_temperature;BMP_pressure;BME280_temperature;BME280_humidity;BME280_pressure;Samples;Min_cycle;Max_cycle;Signal;HPM_P1;HPM_P2
2022/02/19 00:00:37;;;;;;;86.63;52.15;;;;;;;10.47;69.85;101143.41;5092287;28;20040;-61
2022/02/19 00:03:04;;;;;;;89.55;52.38;;;;;;;10.50;69.72;101132.78;5102147;28;20040;-61
2022/02/19 00:05:30;;;;;;;88.25;53.42;;;;;;;10.47;69.92;101132.94;5115385;28;20077;-63
2022/02/19 00:07:57;;;;;;;93.35;53.92;;;;;;;10.49;69.74;101131.09;5111610;27;20044;-62
2022/02/19 00:10:24;;;;;;;89.40;52.92;;;;;;;10.50;69.90;101132.78;5110454;28;20043;-63
2022/02/19 00:12:50;;;;;;;90.75;55.22;;;;;;;10.51;69.63;101123.13;5115147;28;20076;-63
2022/02/19 00:15:17;;;;;;;89.22;54.08;;;;;;;10.50;69.72;101131.94;5104809;28;20105;-63
2022/02/19 00:17:44;;;;;;;89.35;53.67;;;;;;;10.48;69.83;101128.56;5094781;28;20047;-63
2022/02/19 00:20:13;;;;;;;91.18;55.50;;;;;;;10.48;69.74;101129.38;5094751;28;20047;-61
2022/02/19 00:22:39;;;;;;;90.28;53.83;;;;;;;10.48;69.81;101133.78;5094711;28;20066;-61
2022/02/19 00:25:06;;;;;;;91.97;54.08;;;;;;;10.47;69.72;101129.47;5094183;27;20048;-61
2022/02/19 00:27:33;;;;;;;89.05;53.90;;;;;;;10.49;69.84;101135.47;5094608;28;20040;-61
2022/02/19 00:30:00;;;;;;;94.15;55.30;;;;;;;10.48;69.73;101137.25;5094604;28;20079;-61
2022/02/19 00:32:27;;;;;;;91.20;54.33;;;;;;;10.44;69.82;101133.94;5110325;28;20040;-62
2022/02/19 00:34:53;;;;;;;90.03;55.00;;;;;;;10.43;69.84;101136.63;5114679;28;20052;-63
2022/02/19 00:37:20;;;;;;;96.85;54.55;;;;;;;10.44;69.84;101126.06;5114778;28;20430;-63
2022/02/19 00:39:47;;;;;;;90.22;54.50;;;;;;;10.40;69.92;101127.16;5114690;28;20069;-63
2022/02/19 00:42:13;;;;;;;95.50;54.72;;;;;;;10.40;70.07;101129.78;5109154;27;20438;-63
2022/02/19 00:44:40;;;;;;;91.22;54.33;;;;;;;10.40;69.89;101129.78;5093850;28;20044;-63
2022/02/19 00:47:07;;;;;;;90.60;54.70;;;;;;;10.39;70.10;101130.69;5094286;28;20113;-63
2022/02/19 00:49:33;;;;;;;93.65;56.42;;;;;;;10.37;70.01;101127.28;5093736;28;20496;-63
2022/02/19 00:52:00;;;;;;;96.75;56.40;;;;;;;10.32;70.42;101129.25;5094071;28;20055;-63
2022/02/19 00:54:27;;;;;;;93.25;55.88;;;;;;;10.33;70.37;101124.88;5093932;28;20101;-63
2022/02/19 00:56:54;;;;;;;97.93;55.47;;;;;;;10.31;70.22;101124.97;5094002;28;20047;-64
2022/02/19 00:59:24;;;;;;;96.13;56.90;;;;;;;10.28;70.34;101127.72;5102742;28;20104;-63
2022/02/19 01:01:51;;;;;;;90.95;53.58;;;;;;;10.28;70.34;101119.84;5114237;28;20051;-63
2022/02/19 01:04:17;;;;;;;94.75;56.38;;;;;;;10.27;70.26;101126.88;5114554;28;20044;-63
2022/02/19 01:06:44;;;;;;;98.55;57.63;;;;;;;10.27;70.44;101118.13;5114227;28;20048;-63
2022/02/19 01:09:11;;;;;;;97.18;55.92;;;;;;;10.27;70.36;101121.63;5114195;28;20105;-63
2022/02/19 01:11:39;;;;;;;97.78;57.17;;;;;;;10.25;70.46;101122.63;5113915;28;20047;-63
2022/02/19 01:14:07;;;;;;;95.88;58.00;;;;;;;10.26;70.43;101122.56;5113822;28;20404;-63
2022/02/19 01:16:34;;;;;;;94.40;55.60;;;;;;;10.24;70.49;101113.06;5102287;28;20055;-63
2022/02/19 01:19:01;;;;;;;97.00;56.40;;;;;;;10.26;70.34;101119.94;5093530;28;20515;-63
2022/02/19 01:21:27;;;;;;;101.07;58.22;;;;;;;10.23;70.54;101121.84;5093559;28;20048;-63
2022/02/19 01:23:54;;;;;;;94.20;56.95;;;;;;;10.18;70.73;101122.06;5093535;28;20047;-63
2022/02/19 01:26:20;;;;;;;99.85;58.58;;;;;;;10.16;70.74;101118.69;5093432;28;20052;-63
2022/02/19 01:28:47;;;;;;;97.90;56.75;;;;;;;10.16;70.69;101121.31;5093398;28;20412;-63
2022/02/19 01:31:14;;;;;;;98.53;56.90;;;;;;;10.18;70.59;101122.06;5099100;28;20040;-63
2022/02/19 01:33:40;;;;;;;100.43;58.83;;;;;;;10.19;70.69;101122.94;5113585;28;20043;-63
2022/02/19 01:36:07;;;;;;;94.57;56.15;;;;;;;10.21;70.75;101121.06;5113544;28;20545;-63
2022/02/19 01:38:33;;;;;;;95.75;56.03;;;;;;;10.22;70.68;101123.63;5113500;28;20084;-63
2022/02/19 01:41:00;;;;;;;96.47;57.80;;;;;;;10.25;70.73;101118.22;5113631;28;20105;-63
2022/02/19 01:43:27;;;;;;;98.35;58.20;;;;;;;10.26;70.79;101117.31;5113543;28;20090;-63
2022/02/19 01:45:53;;;;;;;99.30;58.70;;;;;;;10.28;70.66;101118.09;5113417;28;20040;-63
2022/02/19 01:48:20;;;;;;;104.30;58.17;;;;;;;10.29;70.86;101119.75;5112442;28;20044;-63
2022/02/19 01:50:47;;;;;;;98.30;56.80;;;;;;;10.29;70.97;101111.91;5113329;28;20043;-63
2022/02/19 01:53:16;;;;;;;98.35;57.30;;;;;;;10.29;70.90;101122.38;5113391;28;20502;-61
2022/02/19 01:55:43;;;;;;;105.45;58.03;;;;;;;10.30;70.90;101118.84;5112464;28;20059;-61
2022/02/19 01:58:10;;;;;;;98.00;58.70;;;;;;;10.32;70.82;101110.06;5113511;28;20100;-61
2022/02/19 02:00:37;;;;;;;96.28;57.88;;;;;;;10.33;70.98;101109.13;5113160;28;20044;-61
2022/02/19 02:03:03;;;;;;;97.22;57.75;;;;;;;10.33;71.03;101111.75;5113085;28;20047;-61
2022/02/19 02:05:33;;;;;;;97.50;57.33;;;;;;;10.32;71.04;101099.56;5101141;28;20048;-61
2022/02/19 02:08:05;;;;;;;101.38;59.65;;;;;;;10.33;70.97;101096.03;5092694;28;20056;-61
2022/02/19 02:10:35;;;;;;;97.90;59.15;;;;;;;10.34;70.93;101102.97;5092818;28;20082;-61
2022/02/19 02:13:04;;;;;;;95.63;57.15;;;;;;;10.33;70.78;101102.09;5092283;28;20060;-61
2022/02/19 02:15:33;;;;;;;96.43;57.83;;;;;;;10.29;71.01;101103.19;5092688;28;20055;-61
2022/02/19 02:18:01;;;;;;;100.95;60.10;;;;;;;10.29;71.14;101100.56;5092597;28;20056;-61
2022/02/19 02:20:29;;;;;;;102.78;59.17;;;;;;;10.28;71.17;101091.00;5092600;28;20048;-61
2022/02/19 02:22:56;;;;;;;100.47;59.30;;;;;;;10.32;71.11;101083.81;5092159;28;20044;-61
2022/02/19 02:25:29;;;;;;;101.93;60.45;;;;;;;10.32;71.07;101089.06;5092640;28;20052;-61
2022/02/19 02:27:57;;;;;;;102.70;60.85;;;;;;;10.33;71.06;101082.91;5092487;28;20040;-61
2022/02/19 02:30:29;;;;;;;95.30;58.35;;;;;;;10.26;71.19;101079.75;5092558;28;20082;-61
2022/02/19 02:32:56;;;;;;;101.70;57.60;;;;;;;10.27;71.38;101070.94;5092475;28;20127;-61
2022/02/19 02:35:22;;;;;;;102.68;60.88;;;;;;;10.27;71.56;101074.41;5092505;28;20056;-61
2022/02/19 02:37:49;;;;;;;98.85;57.97;;;;;;;10.27;71.37;101082.28;5092001;28;20129;-61
2022/02/19 02:40:15;;;;;;;99.78;59.97;;;;;;;10.24;71.66;101071.94;5092361;28;20098;-61
2022/02/19 02:42:42;;;;;;;104.68;58.60;;;;;;;10.27;71.45;101066.56;5092294;28;20086;-61
2022/02/19 02:45:09;;;;;;;105.28;60.30;;;;;;;10.02;72.19;101071.28;5092435;28;20105;-61
2022/02/19 02:47:56;;;;;;;101.07;59.05;;;;;;;10.20;71.80;101069.56;5092370;28;20076;-61
2022/02/19 02:50:23;;;;;;;97.03;59.35;;;;;;;10.24;71.71;101076.34;5092376;28;20048;-60
2022/02/19 02:52:49;;;;;;;102.05;60.65;;;;;;;10.23;71.62;101078.13;5092168;28;20078;-61
2022/02/19 02:55:16;;;;;;;98.60;59.90;;;;;;;10.11;72.10;101071.69;5094149;28;20557;-61
2022/02/19 02:57:43;;;;;;;102.13;60.15;;;;;;;10.09;72.04;101072.69;5092243;28;20097;-61
2022/02/19 03:00:11;;;;;;;99.97;60.63;;;;;;;10.06;72.36;101071.06;5092284;28;20048;-61
2022/02/19 03:02:39;;;;;;;94.72;58.13;;;;;;;10.07;72.28;101082.44;5092365;28;20480;-61
2022/02/19 03:05:08;;;;;;;96.78;57.65;;;;;;;10.06;72.29;101073.69;5092192;28;20124;-60
2022/02/19 03:07:36;;;;;;;94.93;58.17;;;;;;;10.07;72.18;101077.19;5095332;28;20048;-61
2022/02/19 03:10:05;;;;;;;95.45;57.97;;;;;;;10.06;72.30;101073.69;5096076;28;20048;-61
2022/02/19 03:12:32;;;;;;;99.43;59.08;;;;;;;10.06;72.38;101078.09;5095553;28;20048;-60
2022/02/19 03:14:58;;;;;;;97.70;58.33;;;;;;;10.04;72.38;101079.94;5095801;28;20052;-61
2022/02/19 03:17:25;;;;;;;102.68;59.45;;;;;;;10.04;72.32;101080.78;5095988;28;20051;-60
2022/02/19 03:19:52;;;;;;;104.97;60.55;;;;;;;10.08;72.22;101081.47;5095742;28;20070;-61
2022/02/19 03:22:18;;;;;;;99.78;58.17;;;;;;;10.14;71.98;101083.81;5095121;28;20040;-61
2022/02/19 03:24:45;;;;;;;100.70;59.75;;;;;;;10.15;71.90;101082.88;5095873;28;20093;-61
2022/02/19 03:27:12;;;;;;;101.40;58.95;;;;;;;10.14;71.84;101089.06;5095923;28;20051;-61
2022/02/19 03:29:38;;;;;;;97.38;57.78;;;;;;;10.14;71.87;101083.81;5095437;28;20076;-61
2022/02/19 03:32:06;;;;;;;102.18;60.35;;;;;;;10.15;71.90;101093.38;5095533;28;20048;-61
2022/02/19 03:34:33;;;;;;;103.20;60.08;;;;;;;10.15;71.79;101097.78;5095472;28;20542;-61
2022/02/19 03:36:59;;;;;;;102.50;59.78;;;;;;;10.15;71.88;101089.91;5095523;28;20052;-61
2022/02/19 03:39:26;;;;;;;103.50;61.17;;;;;;;10.12;71.89;101094.38;5095547;28;20051;-61
2022/02/19 03:41:52;;;;;;;101.00;58.42;;;;;;;10.11;71.91;101095.31;5095450;28;20158;-61
2022/02/19 03:44:19;;;;;;;99.88;58.28;;;;;;;10.10;71.97;101088.34;5095556;28;20044;-61
2022/02/19 03:46:46;;;;;;;105.28;59.08;;;;;;;10.11;71.94;101107.56;5112076;28;20075;-61
2022/02/19 03:49:12;;;;;;;98.70;58.55;;;;;;;10.09;71.91;101096.31;5115850;28;20101;-61
2022/02/19 03:51:39;;;;;;;103.57;59.22;;;;;;;10.09;72.02;101102.41;5115593;28;20105;-62
2022/02/19 03:54:06;;;;;;;100.32;58.92;;;;;;;10.09;71.98;101098.91;5115605;28;20044;-62
2022/02/19 03:56:32;;;;;;;97.30;58.85;;;;;;;10.01;72.20;101104.53;5116887;28;20047;-61
2022/02/19 03:58:59;;;;;;;101.35;59.50;;;;;;;10.05;72.10;101107.88;5116709;28;20047;-61
2022/02/19 04:01:26;;;;;;;96.30;58.03;;;;;;;10.04;72.13;101103.53;5108884;28;20097;-61
2022/02/19 04:03:52;;;;;;;107.07;61.83;;;;;;;10.01;72.09;101103.69;5106008;28;20483;-62
2022/02/19 04:06:19;;;;;;;100.88;59.80;;;;;;;10.03;72.23;101099.22;5112895;28;20051;-62
2022/02/19 04:08:45;;;;;;;104.85;60.88;;;;;;;10.02;72.20;101105.38;5112933;28;20532;-62
2022/02/19 04:11:12;;;;;;;100.05;58.90;;;;;;;10.00;72.24;101107.25;5112896;28;20092;-62
2022/02/19 04:13:39;;;;;;;104.75;60.95;;;;;;;10.01;72.24;101109.78;5113385;28;20569;-62
2022/02/19 04:16:05;;;;;;;106.00;61.88;;;;;;;9.98;72.26;101112.56;5112604;28;20055;-62
2022/02/19 04:18:32;;;;;;;103.97;61.60;;;;;;;9.97;72.25;101109.06;5098460;28;20048;-62
2022/02/19 04:20:59;;;;;;;104.40;59.33;;;;;;;9.96;72.28;101119.66;5093082;28;20052;-62
2022/02/19 04:23:25;;;;;;;103.45;60.50;;;;;;;9.97;72.23;101114.31;5091619;28;20048;-62
2022/02/19 04:25:52;;;;;;;104.38;59.60;;;;;;;9.97;72.18;101116.09;5091233;28;20105;-61
2022/02/19 04:28:21;;;;;;;110.85;60.70;;;;;;;9.96;72.21;101109.16;5091194;28;20048;-61
2022/02/19 04:30:48;;;;;;;106.50;60.95;;;;;;;9.96;72.17;101110.00;5090840;28;20044;-61
2022/02/19 04:33:15;;;;;;;106.80;61.15;;;;;;;9.93;72.34;101112.78;5100179;28;20081;-61
2022/02/19 04:35:41;;;;;;;104.93;59.80;;;;;;;9.91;72.45;101114.63;5111292;28;20044;-62
2022/02/19 04:38:08;;;;;;;104.90;60.47;;;;;;;9.91;72.54;101112.00;5111376;28;20044;-62
2022/02/19 04:40:35;;;;;;;109.07;60.58;;;;;;;9.92;72.55;101110.25;5111367;28;20499;-61
2022/02/19 04:43:01;;;;;;;105.70;61.20;;;;;;;9.91;72.58;101112.00;5111532;28;20449;-61
2022/02/19 04:45:28;;;;;;;104.65;60.55;;;;;;;9.92;72.60;101102.38;5111159;28;20047;-62
2022/02/19 04:47:55;;;;;;;106.55;59.47;;;;;;;9.93;72.40;101117.19;5111156;28;20448;-61
2022/02/19 04:50:21;;;;;;;103.25;59.33;;;;;;;9.92;72.46;101116.31;5095090;28;20093;-61
2022/02/19 04:52:48;;;;;;;105.13;60.95;;;;;;;9.93;72.42;101111.94;5090750;28;20089;-62
2022/02/19 04:55:15;;;;;;;101.63;59.35;;;;;;;9.91;72.56;101112.00;5090783;28;20051;-61
2022/02/19 04:57:43;;;;;;;102.63;60.20;;;;;;;9.91;72.46;101119.03;5090637;28;20097;-61
2022/02/19 05:00:11;;;;;;;102.13;59.90;;;;;;;9.91;72.61;101114.63;5090577;28;20044;-61
2022/02/19 05:02:38;;;;;;;105.18;60.47;;;;;;;9.90;72.50;101122.56;5090556;28;20044;-61
2022/02/19 05:05:06;;;;;;;102.95;58.75;;;;;;;9.90;72.63;101133.91;5090463;28;20048;-61
2022/02/19 05:07:32;;;;;;;101.85;59.08;;;;;;;9.90;72.51;101128.66;5090602;27;20382;-61
2022/02/19 05:09:59;;;;;;;101.88;57.97;;;;;;;9.90;72.64;101126.03;5090583;28;20109;-62
2022/02/19 05:12:26;;;;;;;100.68;59.67;;;;;;;9.89;72.56;101124.34;5089834;28;20109;-61
2022/02/19 05:14:52;;;;;;;103.78;59.88;;;;;;;9.85;72.71;101129.78;5090263;28;20052;-61
2022/02/19 05:17:19;;;;;;;102.60;58.25;;;;;;;9.85;72.65;101127.16;5090277;28;20048;-62
2022/02/19 05:19:46;;;;;;;103.65;57.75;;;;;;;9.83;72.79;101124.63;5090409;28;20446;-61
2022/02/19 05:22:13;;;;;;;101.28;58.22;;;;;;;9.83;72.87;101124.63;5090124;28;20048;-62
2022/02/19 05:24:39;;;;;;;101.32;58.95;;;;;;;9.83;72.76;101129.88;5093077;27;20048;-61
2022/02/19 05:27:06;;;;;;;102.70;59.13;;;;;;;9.83;72.81;101129.00;5090121;28;20113;-62
2022/02/19 05:29:32;;;;;;;102.60;59.28;;;;;;;9.83;72.83;101124.63;5089432;28;20048;-61
2022/02/19 05:31:59;;;;;;;104.07;59.28;;;;;;;9.84;72.79;101122.84;5089860;28;20044;-61
2022/02/19 05:34:25;;;;;;;101.15;59.35;;;;;;;9.81;73.02;101129.09;5089846;28;20044;-61
2022/02/19 05:36:52;;;;;;;96.75;58.33;;;;;;;9.81;72.81;101129.09;5089819;28;20479;-61
2022/02/19 05:39:19;;;;;;;96.15;58.58;;;;;;;9.79;72.91;101134.41;5089845;28;20097;-62
2022/02/19 05:41:45;;;;;;;102.55;58.40;;;;;;;9.79;73.20;101133.56;5089385;28;20047;-61
2022/02/19 05:44:12;;;;;;;102.25;59.95;;;;;;;9.80;72.90;101125.63;5089960;28;20101;-61
2022/02/19 05:46:39;;;;;;;98.85;59.35;;;;;;;9.78;73.05;101124.84;5089611;28;20056;-61
2022/02/19 05:49:05;;;;;;;101.82;61.05;;;;;;;9.78;73.01;101122.22;5089653;28;20129;-61
2022/02/19 05:51:32;;;;;;;95.90;58.22;;;;;;;9.78;72.92;101139.72;5089583;28;20101;-61
2022/02/19 05:53:58;;;;;;;99.03;57.70;;;;;;;9.78;73.14;101142.34;5089548;28;20044;-62
2022/02/19 05:56:30;;;;;;;93.93;57.15;;;;;;;9.78;73.09;101142.34;5089680;28;20051;-61
2022/02/19 05:59:02;;;;;;;104.13;59.83;;;;;;;9.79;73.00;101149.28;5088943;28;20051;-61
2022/02/19 06:01:30;;;;;;;102.10;58.20;;;;;;;9.77;72.98;101144.09;5089716;28;20121;-61
2022/02/19 06:03:56;;;;;;;98.75;58.03;;;;;;;9.77;73.00;101140.63;5089558;28;20044;-61
2022/02/19 06:06:23;;;;;;;98.30;57.97;;;;;;;9.76;73.14;101141.56;5089493;28;20052;-61
2022/02/19 06:08:50;;;;;;;100.80;58.20;;;;;;;9.77;73.17;101143.25;5089463;28;20416;-62
2022/02/19 06:11:16;;;;;;;98.95;58.05;;;;;;;9.78;73.12;101144.97;5089208;28;20087;-61
2022/02/19 06:13:43;;;;;;;100.15;57.20;;;;;;;9.77;73.18;101143.25;5089348;28;20484;-62
2022/02/19 06:16:09;;;;;;;102.20;57.10;;;;;;;9.75;73.28;101143.34;5089024;28;20188;-62
2022/02/19 06:18:36;;;;;;;103.18;59.05;;;;;;;9.76;73.09;101144.19;5089335;28;20051;-62
2022/02/19 06:21:03;;;;;;;93.53;57.75;;;;;;;9.79;73.21;101144.88;5089189;28;20052;-61
2022/02/19 06:23:30;;;;;;;95.13;56.72;;;;;;;9.78;73.22;101142.34;5089343;28;20055;-62
2022/02/19 06:25:56;;;;;;;95.68;56.45;;;;;;;9.74;73.32;101132.94;5089188;28;20044;-61
2022/02/19 06:28:23;;;;;;;99.28;58.53;;;;;;;9.77;73.15;101136.22;5089378;28;20093;-61
2022/02/19 06:30:49;;;;;;;97.50;57.80;;;;;;;9.78;73.12;101140.56;5088435;28;20109;-61
2022/02/19 06:33:16;;;;;;;97.97;56.60;;;;;;;9.75;72.98;101135.47;5089025;28;20044;-62
2022/02/19 06:35:43;;;;;;;103.95;59.65;;;;;;;9.76;73.15;101136.31;5088800;28;20051;-61
2022/02/19 06:38:09;;;;;;;99.70;57.75;;;;;;;9.77;73.17;101153.75;5089296;28;20048;-61
2022/02/19 06:40:36;;;;;;;101.82;58.05;;;;;;;9.77;73.19;101156.38;5088888;28;20052;-62
2022/02/19 06:43:03;;;;;;;100.28;57.33;;;;;;;9.77;73.33;101159.81;5093238;28;20052;-61
2022/02/19 06:45:30;;;;;;;97.70;58.00;;;;;;;9.84;73.08;101173.50;5093363;28;20048;-62
2022/02/19 06:47:56;;;;;;;100.80;58.85;;;;;;;9.82;73.13;101177.13;5092940;27;20062;-61
2022/02/19 06:50:23;;;;;;;100.72;58.60;;;;;;;9.81;73.32;101192.00;5092955;28;20044;-62
2022/02/19 06:52:51;;;;;;;97.35;57.92;;;;;;;9.80;73.20;101193.78;5093267;28;20048;-62
2022/02/19 06:55:17;;;;;;;94.68;56.22;;;;;;;9.79;73.22;101191.22;5093145;28;20393;-62
2022/02/19 06:57:48;;;;;;;101.57;57.63;;;;;;;9.79;73.08;101189.44;5092935;28;20044;-62
2022/02/19 07:00:16;;;;;;;101.18;57.88;;;;;;;9.79;73.27;101193.84;5092952;28;20180;-62
2022/02/19 07:02:42;;;;;;;97.20;56.75;;;;;;;9.81;73.14;101205.09;5077400;28;20040;-62
2022/02/19 07:05:09;;;;;;;97.70;57.03;;;;;;;9.79;73.28;101197.31;5113243;28;20484;-61
2022/02/19 07:07:36;;;;;;;93.57;55.92;;;;;;;9.79;73.06;101205.16;5113209;28;20062;-61
2022/02/19 07:10:06;;;;;;;98.07;57.22;;;;;;;9.83;73.33;101205.00;5113127;28;20058;-62
2022/02/19 07:12:33;;;;;;;99.32;56.75;;;;;;;9.83;73.21;101212.88;5112995;28;20124;-61
2022/02/19 07:14:59;;;;;;;102.75;56.67;;;;;;;9.82;73.17;101201.56;5112845;28;20044;-62
2022/02/19 07:17:26;;;;;;;93.38;55.15;;;;;;;9.80;73.19;101198.16;5112886;28;20039;-61
2022/02/19 07:19:52;;;;;;;114.15;58.38;;;;;;;9.80;73.21;101201.63;5093403;28;20478;-61
2022/02/19 07:22:21;;;;;;;99.10;58.33;;;;;;;9.78;73.35;101205.25;5092900;28;20468;-61
2022/02/19 07:24:47;;;;;;;99.18;58.75;;;;;;;9.75;73.17;101211.47;5092457;28;20056;-61
2022/02/19 07:27:15;;;;;;;94.55;56.60;;;;;;;9.71;73.37;101217.75;5092415;28;20051;-61
2022/02/19 07:29:42;;;;;;;97.82;57.25;;;;;;;9.71;73.58;101220.38;5092365;28;20044;-61
2022/02/19 07:32:09;;;;;;;96.00;58.00;;;;;;;9.74;73.26;101229.91;5092282;28;20094;-61
2022/02/19 07:34:36;;;;;;;94.55;57.30;;;;;;;9.76;73.34;101231.53;5103544;27;20067;-61
2022/02/19 07:37:03;;;;;;;98.07;56.88;;;;;;;9.79;73.21;101230.53;5112457;28;20409;-61
2022/02/19 07:39:30;;;;;;;99.97;59.22;;;;;;;9.81;73.21;101231.31;5112926;28;20039;-61
2022/02/19 07:41:56;;;;;;;96.35;56.50;;;;;;;9.83;73.24;101229.47;5112373;28;20044;-62
2022/02/19 07:44:23;;;;;;;101.28;58.20;;;;;;;9.87;73.23;101232.81;5112668;28;20456;-61
2022/02/19 07:46:50;;;;;;;97.22;58.13;;;;;;;9.91;73.07;101232.59;5112581;28;20044;-62
2022/02/19 08:00:17;;;;;;;108.35;60.22;;;;;;;10.12;72.69;101267.47;5091898;28;20071;-61
2022/02/19 08:02:43;;;;;;;104.40;58.72;;;;;;;10.19;72.35;101259.31;5091557;28;20093;-61
2022/02/19 08:05:10;;;;;;;96.85;57.53;;;;;;;10.26;72.45;101260.72;5091988;28;20097;-62
2022/02/19 08:07:37;;;;;;;97.97;57.38;;;;;;;10.26;72.25;101265.97;5091627;28;20074;-61
2022/02/19 08:10:04;;;;;;;98.90;59.38;;;;;;;10.32;72.31;101267.44;5100240;28;20108;-63
2022/02/19 08:12:30;;;;;;;97.60;59.78;;;;;;;10.36;72.30;101269.91;5110028;28;20051;-63
2022/02/19 08:14:57;;;;;;;99.47;58.47;;;;;;;10.38;72.22;101270.66;5098560;28;20451;-67
2022/02/19 08:17:24;;;;;;;99.70;59.92;;;;;;;10.39;72.17;101282.84;5107318;28;20097;-63
2022/02/19 08:19:51;;;;;;;101.45;60.08;;;;;;;10.40;72.16;101287.19;5109326;28;20065;-66
2022/02/19 08:22:18;;;;;;;98.68;59.53;;;;;;;10.40;72.21;101287.19;5111386;28;20066;-64
2022/02/19 08:24:44;;;;;;;100.10;58.60;;;;;;;10.40;72.31;101289.81;5111605;28;20054;-62
2022/02/19 08:27:11;;;;;;;100.63;58.75;;;;;;;10.40;72.34;101288.97;5102572;28;20173;-62
2022/02/19 08:29:38;;;;;;;104.32;60.97;;;;;;;10.39;72.39;101293.34;5091228;28;20454;-63
2022/02/19 08:32:05;;;;;;;103.20;62.40;;;;;;;10.42;72.39;101287.97;5091046;28;20044;-63
2022/02/19 08:34:32;;;;;;;102.95;62.25;;;;;;;10.46;72.28;101291.28;5091131;28;20048;-66
2022/02/19 08:36:58;;;;;;;99.78;59.47;;;;;;;10.54;72.11;101286.53;5091124;28;20083;-63
2022/02/19 08:39:25;;;;;;;98.43;59.08;;;;;;;10.63;71.77;101287.88;5091270;28;20109;-66
2022/02/19 08:41:52;;;;;;;101.45;59.15;;;;;;;10.71;71.71;101292.75;5090655;28;20636;-63
2022/02/19 08:44:19;;;;;;;104.22;60.63;;;;;;;10.74;71.53;101296.06;5109807;28;20093;-62
2022/02/19 08:46:46;;;;;;;99.97;60.35;;;;;;;10.76;71.55;101294.22;5110648;28;20899;-63
2022/02/19 08:49:12;;;;;;;102.88;61.47;;;;;;;10.84;71.50;101293.00;5110884;28;20077;-62
2022/02/19 08:51:39;;;;;;;103.38;61.47;;;;;;;10.91;71.23;101303.13;5110912;28;20043;-63
2022/02/19 08:54:06;;;;;;;99.75;60.00;;;;;;;10.95;71.16;101298.56;5110684;28;20522;-63
2022/02/19 08:56:32;;;;;;;104.82;59.72;;;;;;;11.00;70.88;101308.84;5110514;28;20558;-63
2022/02/19 08:58:59;;;;;;;105.78;61.15;;;;;;;11.01;70.79;101306.16;5109761;27;20040;-64
2022/02/19 09:01:27;;;;;;;108.32;62.08;;;;;;;11.01;71.08;101315.78;5110304;28;20546;-63
2022/02/19 09:03:55;;;;;;;104.50;62.00;;;;;;;11.01;70.99;101319.28;5110293;28;20040;-63
2022/02/19 09:06:22;;;;;;;102.70;60.85;;;;;;;10.98;71.08;101322.03;5110344;28;20055;-64
2022/02/19 09:08:49;;;;;;;110.97;62.92;;;;;;;10.98;71.24;101321.19;5110532;28;20130;-63
2022/02/19 09:11:16;;;;;;;104.28;61.67;;;;;;;10.95;71.28;101327.44;5109943;28;20109;-62
2022/02/19 09:13:42;;;;;;;105.88;61.58;;;;;;;10.94;71.37;101323.13;5107553;28;20044;-61
2022/02/19 09:16:09;;;;;;;100.95;60.72;;;;;;;10.95;71.36;101337.97;5110938;28;20048;-63
2022/02/19 09:18:35;;;;;;;102.22;62.00;;;;;;;10.97;71.34;101333.50;5110667;28;20044;-61
2022/02/19 09:21:03;;;;;;;110.18;63.70;;;;;;;11.05;71.02;101338.38;5110405;28;20044;-62
2022/02/19 09:23:29;;;;;;;103.97;62.65;;;;;;;11.19;70.58;101332.44;5109927;28;20051;-62
2022/02/19 09:25:56;;;;;;;110.60;64.90;;;;;;;11.26;70.42;101339.94;5109979;28;20051;-63
2022/02/19 09:28:24;;;;;;;105.25;62.95;;;;;;;11.37;70.17;101334.13;5110423;28;20052;-64
2022/02/19 09:30:52;;;;;;;108.80;63.55;;;;;;;11.48;69.82;101338.84;5108916;27;20089;-63
2022/02/19 09:33:18;;;;;;;97.40;59.55;;;;;;;11.57;69.47;101330.47;5110190;28;20055;-62
2022/02/19 09:35:45;;;;;;;102.78;63.03;;;;;;;11.56;69.43;101335.81;5110291;28;20066;-64
2022/02/19 09:38:12;;;;;;;109.00;63.60;;;;;;;11.66;69.38;101338.84;5109861;28;20479;-63
2022/02/19 09:40:40;;;;;;;110.25;61.83;;;;;;;11.73;69.28;101345.44;5109882;28;20453;-63
2022/02/19 09:43:15;;;;;;;105.22;63.65;;;;;;;11.68;69.54;101348.34;5109939;28;20435;-63
2022/02/19 09:45:42;;;;;;;113.75;63.05;;;;;;;11.64;69.52;101349.41;5110223;28;20164;-64
2022/02/19 09:48:10;;;;;;;111.82;63.50;;;;;;;11.59;69.62;101354.91;5091807;28;20058;-63
2022/02/19 09:50:38;;;;;;;110.13;63.40;;;;;;;11.54;69.93;101356.94;5089685;28;20048;-62
2022/02/19 09:53:05;;;;;;;110.47;65.18;;;;;;;11.54;70.06;101354.31;5089414;28;20097;-63
2022/02/19 09:55:33;;;;;;;109.05;65.20;;;;;;;11.56;69.75;101354.22;5089371;28;20055;-61
2022/02/19 09:58:00;;;;;;;111.80;64.93;;;;;;;11.65;69.50;101351.09;5089193;28;20059;-63
2022/02/19 10:00:35;;;;;;;113.55;67.10;;;;;;;11.64;69.63;101354.66;5071627;28;20052;-62
2022/02/19 10:03:02;;;;;;;111.63;66.88;;;;;;;11.68;69.58;101352.72;5089211;28;20051;-62
2022/02/19 10:05:31;;;;;;;109.22;65.72;;;;;;;11.64;69.45;101357.28;5089044;28;20051;-62
2022/02/19 10:08:01;;;;;;;104.82;63.35;;;;;;;11.56;69.61;101362.94;5089363;28;20059;-63
2022/02/19 10:10:28;;;;;;;113.25;65.97;;;;;;;11.59;69.63;101367.19;5088994;28;20040;-62
2022/02/19 10:12:55;;;;;;;106.95;63.08;;;;;;;11.50;69.99;101376.38;5088879;28;20559;-64
2022/02/19 10:15:22;;;;;;;118.55;67.80;;;;;;;11.51;69.94;101372.00;5089015;28;20056;-63
2022/02/19 10:17:50;;;;;;;116.47;65.88;;;;;;;11.54;69.86;101372.69;5089072;28;20073;-63
2022/02/19 10:20:19;;;;;;;109.97;65.93;;;;;;;11.65;69.68;101368.69;5088625;27;20506;-62
2022/02/19 10:22:46;;;;;;;118.72;66.85;;;;;;;11.57;69.92;101374.31;5071751;28;20128;-63
2022/02/19 10:25:15;;;;;;;117.60;69.47;;;;;;;11.54;69.93;101375.34;5088893;28;20097;-63
2022/02/19 10:28:04;;;;;;;111.00;67.03;;;;;;;11.55;69.99;101374.41;5089101;28;20094;-62
2022/02/19 10:30:31;;;;;;;118.95;68.30;;;;;;;11.56;69.89;101370.00;5089265;28;20055;-61
2022/02/19 10:33:01;;;;;;;118.50;68.70;;;;;;;11.58;70.05;101368.16;5089002;28;20048;-60
2022/02/19 10:35:33;;;;;;;112.85;67.18;;;;;;;11.59;70.01;101372.44;5089389;28;20458;-63
2022/02/19 10:38:03;;;;;;;112.03;67.65;;;;;;;11.56;70.03;101372.63;5088546;28;20101;-62
2022/02/19 10:40:36;;;;;;;120.15;67.00;;;;;;;11.55;70.31;101374.41;5088773;28;20117;-62
2022/02/19 10:43:05;;;;;;;114.65;66.68;;;;;;;11.58;70.14;101384.75;5088842;28;20421;-63
2022/02/19 10:45:33;;;;;;;112.15;67.00;;;;;;;11.63;70.05;101381.03;5089099;28;20055;-62
2022/02/19 10:48:18;;;;;;;109.88;65.93;;;;;;;11.65;70.30;101384.44;5088954;28;20058;-64
2022/02/19 10:50:47;;;;;;;109.45;64.45;;;;;;;11.63;70.11;101391.56;5088745;28;20397;-62
2022/02/19 10:53:26;;;;;;;113.57;66.70;;;;;;;11.75;69.76;101381.25;5088723;28;20072;-63
2022/02/19 10:55:54;;;;;;;109.43;65.20;;;;;;;11.77;69.81;101375.94;5088891;28;20121;-62
2022/02/19 10:58:21;;;;;;;108.30;64.57;;;;;;;11.80;69.74;101377.56;5088968;28;20102;-63
2022/02/19 11:00:49;;;;;;;112.15;66.55;;;;;;;11.80;69.80;101375.78;5088902;28;20055;-63
2022/02/19 11:03:16;;;;;;;112.72;66.57;;;;;;;11.82;69.80;101370.41;5089168;28;20052;-65
2022/02/19 11:05:43;;;;;;;114.90;66.47;;;;;;;11.82;69.92;101376.56;5088848;28;20097;-62
2022/02/19 11:08:10;;;;;;;113.93;66.15;;;;;;;11.76;69.76;101369.81;5070575;28;20056;-62
2022/02/19 11:10:38;;;;;;;107.47;65.93;;;;;;;11.72;70.11;101375.31;5101568;28;20044;-61
2022/02/19 11:13:05;;;;;;;88.88;52.38;;;;;;;12.02;69.69;101382.56;5102570;28;20048;-59
2022/02/19 11:15:32;;;;;;;100.07;53.95;;;;;;;12.14;69.47;101383.69;5097481;28;20044;-61
2022/02/19 11:17:58;;;;;;;105.43;61.53;;;;;;;12.51;68.43;101382.56;5090090;28;20508;-59